Time;durP1;ratioP1;P1;durP2;ratioP2;P2;SDS_P1;SDS_P2;PMS_P1;PMS_P2;Temp;Humidity;BMP_temperature;BMP_pressure;BME280_temperature;BME280_humidity;BME280_pressure;Samples;Min_cycle;Max_cycle;Signal;HPM_P1;HPM_P2
2022/09/01 00:00:40;;;;;;;21.88;12.95;;;;;;;19.23;100.00;100204.88;5072996;28;20052;-62
2022/09/01 00:03:09;;;;;;;21.17;13.77;;;;;;;19.23;100.00;100209.38;5072850;28;20472;-62
2022/09/01 00:05:36;;;;;;;18.77;12.07;;;;;;;19.18;100.00;100204.31;5073022;28;20032;-63
2022/09/01 00:08:02;;;;;;;21.50;12.68;;;;;;;19.15;100.00;100206.34;5072469;28;20460;-63
2022/09/01 00:10:28;;;;;;;21.70;13.68;;;;;;;19.13;100.00;100208.25;5072171;28;20035;-62
2022/09/01 00:12:53;;;;;;;19.55;12.88;;;;;;;19.11;100.00;100210.22;5072797;28;20024;-63
2022/09/01 00:15:19;;;;;;;18.30;12.70;;;;;;;19.02;100.00;100205.38;5072730;28;20024;-62
2022/09/01 00:17:44;;;;;;;23.77;12.40;;;;;;;19.01;100.00;100209.06;5072592;28;20028;-62
2022/09/01 00:20:10;;;;;;;22.27;12.43;;;;;;;19.00;100.00;100210.00;5071920;28;20590;-62
2022/09/01 00:22:36;;;;;;;20.08;12.75;;;;;;;19.00;100.00;100218.97;5072533;28;20035;-63
2022/09/01 00:25:01;;;;;;;19.00;11.82;;;;;;;18.98;100.00;100215.50;5072158;28;20051;-63
2022/09/01 00:27:26;;;;;;;17.83;11.95;;;;;;;18.97;100.00;100207.50;5072519;28;20502;-62
2022/09/01 00:29:52;;;;;;;17.85;11.38;;;;;;;18.93;100.00;100220.31;5071990;28;20024;-62
2022/09/01 00:32:18;;;;;;;19.17;10.65;;;;;;;18.88;100.00;100216.19;5071486;28;20384;-62
2022/09/01 00:34:44;;;;;;;16.95;11.40;;;;;;;18.78;100.00;100201.56;5072011;28;20048;-62
2022/09/01 00:37:09;;;;;;;17.23;10.30;;;;;;;18.76;100.00;100216.97;5071841;28;20060;-62
2022/09/01 00:39:35;;;;;;;16.20;10.05;;;;;;;18.58;100.00;100194.75;5071720;28;20028;-62
2022/09/01 00:42:00;;;;;;;17.85;10.68;;;;;;;18.70;100.00;100214.66;5071831;28;20041;-62
2022/09/01 00:44:26;;;;;;;15.43;10.30;;;;;;;18.70;100.00;100214.66;5071990;28;20024;-61
2022/09/01 00:46:54;;;;;;;14.18;9.18;;;;;;;18.64;100.00;100209.63;5072005;28;20020;-62
2022/09/01 00:49:52;;;;;;;14.40;9.95;;;;;;;18.59;100.00;100223.41;5071996;28;20031;-61
2022/09/01 00:52:26;;;;;;;13.68;9.68;;;;;;;18.57;100.00;100213.66;5068612;28;20052;-62
2022/09/01 00:54:57;;;;;;;13.25;9.93;;;;;;;18.55;100.00;100210.22;5072012;28;20020;-62
2022/09/01 00:57:23;;;;;;;11.77;8.73;;;;;;;18.55;100.00;100204.84;5071742;28;20496;-62
2022/09/01 00:59:55;;;;;;;14.25;9.05;;;;;;;18.50;100.00;100206.94;5071538;28;20554;-62
2022/09/01 01:02:21;;;;;;;14.85;9.57;;;;;;;18.44;100.00;100213.56;5066233;28;20104;-66
2022/09/01 01:05:12;;;;;;;15.52;9.50;;;;;;;18.42;100.00;100214.63;5053823;28;20388;-65
2022/09/01 01:07:42;;;;;;;14.40;9.38;;;;;;;18.38;100.00;100214.75;5036267;28;20052;-65
2022/09/01 01:10:10;;;;;;;12.38;8.30;;;;;;;18.33;100.00;100221.41;5060679;28;20059;-66
2022/09/01 01:12:39;;;;;;;13.63;8.07;;;;;;;18.29;100.00;100217.16;5072252;28;20039;-66
2022/09/01 01:15:06;;;;;;;13.73;8.48;;;;;;;18.25;100.00;100221.84;5072001;28;20036;-66
2022/09/01 01:17:32;;;;;;;12.20;8.13;;;;;;;18.21;100.00;100228.41;5072634;28;20029;-66
2022/09/01 01:23:23;;;;;;;11.68;7.63;;;;;;;18.10;100.00;100220.09;5073438;28;20035;-66
2022/09/01 01:25:55;;;;;;;12.95;7.85;;;;;;;18.05;100.00;100214.16;5073625;28;20035;-65
2022/09/01 01:28:30;;;;;;;15.40;7.57;;;;;;;17.97;100.00;100207.47;5073884;28;20471;-66
2022/09/01 01:31:00;;;;;;;10.30;7.45;;;;;;;17.91;100.00;100211.38;5074175;28;20025;-65
2022/09/01 01:33:33;;;;;;;12.05;7.75;;;;;;;17.87;100.00;100214.34;5071040;28;20485;-66
2022/09/01 01:36:00;;;;;;;11.93;8.32;;;;;;;17.84;100.00;100211.84;5076259;28;20028;-65
2022/09/01 01:38:26;;;;;;;10.27;6.75;;;;;;;17.79;100.00;100201.34;5057436;28;20040;-66
2022/09/01 01:40:53;;;;;;;11.15;7.45;;;;;;;17.79;100.00;100209.41;5071786;28;20020;-65
2022/09/01 01:43:20;;;;;;;12.48;7.88;;;;;;;17.79;100.00;100211.25;5072268;28;20028;-66
2022/09/01 01:45:50;;;;;;;10.65;7.22;;;;;;;17.76;100.00;100209.59;5072580;28;20029;-65
2022/09/01 01:48:23;;;;;;;12.40;7.10;;;;;;;17.73;100.00;100209.78;5072099;28;20023;-66
2022/09/01 01:50:51;;;;;;;10.60;7.13;;;;;;;17.71;100.00;100209.00;5073830;28;20466;-66
2022/09/01 01:53:18;;;;;;;11.40;6.85;;;;;;;17.68;100.00;100206.50;5072136;28;20047;-66
2022/09/01 01:55:44;;;;;;;12.02;7.40;;;;;;;17.62;100.00;100214.94;5073272;28;20103;-66
2022/09/01 01:58:10;;;;;;;13.45;7.28;;;;;;;17.61;100.00;100210.50;5072991;28;20369;-65
2022/09/01 02:00:37;;;;;;;12.23;7.13;;;;;;;17.54;100.00;100211.81;5073026;28;20113;-65
2022/09/01 02:03:04;;;;;;;10.38;7.15;;;;;;;17.56;100.00;100211.72;5071080;28;20024;-66
2022/09/01 02:05:32;;;;;;;12.43;7.13;;;;;;;17.53;100.00;100212.75;5072768;28;20033;-65
2022/09/01 02:08:03;;;;;;;12.30;7.05;;;;;;;17.53;100.00;100211.91;5073783;28;20550;-66
2022/09/01 02:10:35;;;;;;;9.18;6.32;;;;;;;17.49;100.00;100203.16;5073758;28;20044;-66
2022/09/01 02:13:03;;;;;;;9.05;6.43;;;;;;;17.49;100.00;100207.66;5073528;28;20027;-66
2022/09/01 02:15:42;;;;;;;10.27;7.28;;;;;;;17.49;100.00;100205.84;5072926;28;20458;-65
2022/09/01 02:18:09;;;;;;;11.48;7.55;;;;;;;17.49;100.00;100205.84;5073798;28;20036;-66
2022/09/01 02:20:35;;;;;;;9.50;6.47;;;;;;;17.46;100.00;100210.53;5072062;28;20024;-66
2022/09/01 02:23:08;;;;;;;9.68;7.18;;;;;;;17.47;100.00;100207.75;5074406;28;20517;-66
2022/09/01 02:25:34;;;;;;;10.80;7.17;;;;;;;17.42;100.00;100207.09;5074012;28;20051;-66
2022/09/01 02:28:01;;;;;;;9.73;6.97;;;;;;;17.39;100.00;100207.28;5073621;28;20109;-65
2022/09/01 02:30:27;;;;;;;13.05;6.70;;;;;;;17.35;100.00;100207.56;5073394;28;20491;-66
2022/09/01 02:32:52;;;;;;;10.85;6.53;;;;;;;17.33;100.00;100207.63;5079146;28;20024;-66
2022/09/01 02:35:18;;;;;;;8.88;6.53;;;;;;;17.34;100.00;100208.50;5083182;28;20559;-66
2022/09/01 02:37:48;;;;;;;9.07;6.10;;;;;;;17.33;100.00;100199.56;5083722;28;20495;-66
2022/09/01 02:40:14;;;;;;;9.15;6.05;;;;;;;17.34;100.00;100205.81;5081183;28;20025;-65
2022/09/01 02:42:42;;;;;;;10.85;6.50;;;;;;;17.26;100.00;100198.19;5060107;28;20021;-66
2022/09/01 02:45:10;;;;;;;9.07;6.68;;;;;;;17.26;100.00;100203.56;5084090;28;20031;-66
2022/09/01 02:47:40;;;;;;;9.60;6.75;;;;;;;17.26;100.00;100200.00;5072954;28;20031;-66
2022/09/01 02:50:12;;;;;;;8.38;6.50;;;;;;;17.26;100.00;100202.69;5065080;28;20084;-66
2022/09/01 02:52:39;;;;;;;9.80;6.65;;;;;;;17.24;100.00;100200.09;5063575;28;20436;-65
2022/09/01 02:55:06;;;;;;;11.38;7.38;;;;;;;17.22;100.00;100199.31;5082970;28;20025;-66
2022/09/01 02:57:33;;;;;;;9.07;6.60;;;;;;;17.20;100.00;100198.50;5083713;28;20099;-65
2022/09/01 02:59:59;;;;;;;8.75;6.05;;;;;;;17.19;100.00;100201.28;5085751;28;20028;-66
2022/09/01 03:02:27;;;;;;;12.63;7.15;;;;;;;17.12;100.00;100206.16;5085944;28;20069;-66
2022/09/01 03:04:54;;;;;;;9.85;6.60;;;;;;;17.17;100.00;100197.81;5083528;28;20032;-65
2022/09/01 03:07:22;;;;;;;11.18;6.78;;;;;;;17.15;100.00;100197.91;5085157;28;20059;-66
2022/09/01 03:09:48;;;;;;;8.63;6.20;;;;;;;17.10;100.00;100192.81;5083650;28;20044;-66
2022/09/01 03:12:14;;;;;;;9.00;6.35;;;;;;;17.08;100.00;100199.22;5082218;28;20016;-66
2022/09/01 03:14:41;;;;;;;10.88;6.75;;;;;;;17.06;100.00;100196.63;5081381;28;20036;-65
2022/09/01 03:17:06;;;;;;;10.15;6.78;;;;;;;17.02;100.00;100202.25;5079721;28;20024;-65
2022/09/01 03:19:43;;;;;;;8.73;6.80;;;;;;;16.98;100.00;100198.00;5077539;28;20030;-65
2022/09/01 03:22:08;;;;;;;11.80;6.97;;;;;;;16.95;100.00;100203.56;5078183;28;20028;-64
2022/09/01 03:24:35;;;;;;;9.93;6.35;;;;;;;16.94;100.00;100196.44;5076965;28;20086;-65
2022/09/01 03:27:00;;;;;;;9.93;7.25;;;;;;;16.81;100.00;100207.00;5078618;28;20084;-65
2022/09/01 03:29:26;;;;;;;12.15;6.93;;;;;;;16.77;100.00;100204.56;5077321;28;20055;-65
2022/09/01 03:31:51;;;;;;;11.05;7.18;;;;;;;16.69;100.00;100201.41;5075746;28;20028;-65
2022/09/01 03:34:19;;;;;;;9.80;6.50;;;;;;;16.78;100.00;100214.34;5077778;28;20024;-65
2022/09/01 03:36:48;;;;;;;10.48;6.63;;;;;;;16.73;100.00;100200.31;5075667;28;20035;-65
2022/09/01 03:39:16;;;;;;;10.18;7.07;;;;;;;16.75;100.00;100211.84;5076867;28;20108;-66
2022/09/01 03:41:43;;;;;;;9.82;7.13;;;;;;;16.74;100.00;100208.28;5077648;28;20046;-66
2022/09/01 03:44:10;;;;;;;12.38;7.78;;;;;;;16.73;100.00;100208.38;5076785;28;20028;-66
2022/09/01 03:46:36;;;;;;;9.00;6.28;;;;;;;16.70;100.00;100203.16;5078308;28;20035;-66
2022/09/01 03:49:06;;;;;;;12.23;7.82;;;;;;;16.70;100.00;100200.47;5077589;28;20021;-66
2022/09/01 03:51:31;;;;;;;12.38;7.10;;;;;;;16.70;100.00;100204.03;5077220;28;20032;-66
2022/09/01 03:53:58;;;;;;;15.80;7.40;;;;;;;16.73;100.00;100208.38;5076041;28;20078;-66
2022/09/01 03:56:28;;;;;;;9.18;7.00;;;;;;;16.73;100.00;100197.63;5077304;28;20028;-65
2022/09/01 03:58:55;;;;;;;13.48;7.50;;;;;;;16.67;100.00;100206.03;5076292;28;20763;-66
2022/09/01 04:01:21;;;;;;;13.05;7.43;;;;;;;16.61;100.00;100192.91;5076581;28;20476;-66
2022/09/01 04:03:47;;;;;;;10.20;7.15;;;;;;;16.65;100.00;100208.78;5077123;28;20024;-66
2022/09/01 04:06:17;;;;;;;10.68;7.35;;;;;;;16.64;100.00;100200.78;5077082;28;20060;-66
2022/09/01 04:08:43;;;;;;;10.15;7.53;;;;;;;16.65;100.00;100203.41;5076444;28;20089;-66
2022/09/01 04:11:18;;;;;;;9.07;6.68;;;;;;;16.63;100.00;100201.75;5074660;28;20028;-65
2022/09/01 04:13:45;;;;;;;10.88;7.55;;;;;;;16.73;100.00;100205.69;5074520;28;20074;-65
2022/09/01 04:19:14;;;;;;;11.52;7.53;;;;;;;16.71;100.00;100194.16;5077423;28;20097;-66
2022/09/01 04:21:41;;;;;;;13.90;8.18;;;;;;;16.69;100.00;100201.41;5076953;28;20032;-65
2022/09/01 04:24:08;;;;;;;9.52;7.47;;;;;;;16.70;100.00;100197.78;5076670;28;20021;-65
2022/09/01 04:26:33;;;;;;;10.80;7.55;;;;;;;16.69;100.00;100196.03;5074376;28;20024;-66
2022/09/01 04:28:59;;;;;;;13.02;7.78;;;;;;;16.69;100.00;100199.59;5075475;28;20020;-66
2022/09/01 04:31:25;;;;;;;11.70;7.57;;;;;;;16.71;100.00;100199.50;5057051;28;20025;-66
2022/09/01 04:33:54;;;;;;;10.43;7.57;;;;;;;16.70;100.00;100201.34;5077280;28;20059;-65
2022/09/01 04:36:29;;;;;;;12.10;7.10;;;;;;;16.65;100.00;100194.50;5078431;28;20111;-65
2022/09/01 04:39:00;;;;;;;11.80;7.35;;;;;;;16.72;100.00;100202.13;5077197;28;20044;-65
2022/09/01 04:41:30;;;;;;;10.50;7.47;;;;;;;16.71;100.00;100199.50;5074031;28;20021;-66
2022/09/01 04:43:57;;;;;;;9.63;7.00;;;;;;;16.68;100.00;100207.75;5077403;28;20040;-66
2022/09/01 04:46:27;;;;;;;11.98;8.13;;;;;;;16.69;100.00;100207.66;5078161;28;20439;-65
2022/09/01 04:48:53;;;;;;;12.32;7.72;;;;;;;16.65;100.00;100206.09;5074630;28;20021;-65
2022/09/01 04:51:21;;;;;;;12.02;7.53;;;;;;;16.67;100.00;100206.88;5075889;28;20023;-65
2022/09/01 04:53:49;;;;;;;11.57;7.47;;;;;;;16.64;100.00;100198.09;5077441;28;20025;-65
2022/09/01 04:56:18;;;;;;;10.23;7.30;;;;;;;16.64;100.00;100203.47;5077197;28;20131;-65
2022/09/01 04:58:50;;;;;;;14.73;7.82;;;;;;;16.57;100.00;100194.03;5079465;28;20024;-65
2022/09/01 05:01:18;;;;;;;11.48;7.13;;;;;;;16.59;100.00;100205.56;5077941;28;20025;-65
2022/09/01 05:03:44;;;;;;;12.35;6.93;;;;;;;16.58;100.00;100203.81;5075108;28;20024;-65
2022/09/01 05:06:16;;;;;;;10.65;6.90;;;;;;;16.64;100.00;100203.47;5075024;28;20048;-66
2022/09/01 05:08:44;;;;;;;11.95;6.70;;;;;;;16.63;100.00;100201.75;5079349;28;20025;-65
2022/09/01 05:11:11;;;;;;;14.38;7.63;;;;;;;16.70;100.00;100205.84;5079199;28;20157;-65
2022/09/01 05:13:38;;;;;;;14.00;7.78;;;;;;;16.74;100.00;100204.72;5079042;28;20027;-65
2022/09/01 05:16:14;;;;;;;17.30;8.48;;;;;;;16.80;100.00;100204.41;5079748;28;20029;-65
2022/09/01 05:18:43;;;;;;;11.30;8.07;;;;;;;16.87;100.00;100206.66;5077685;28;20031;-65
2022/09/01 05:21:09;;;;;;;15.02;9.05;;;;;;;16.94;100.00;100196.44;5078902;28;20028;-66
2022/09/01 05:23:39;;;;;;;15.77;9.13;;;;;;;16.97;100.00;100191.75;5080748;28;20078;-65
2022/09/01 05:26:13;;;;;;;11.27;7.22;;;;;;;17.04;100.00;100186.91;5079714;28;20510;-65
2022/09/01 05:28:40;;;;;;;14.23;7.93;;;;;;;17.11;100.00;100193.69;5080079;28;20028;-65
2022/09/01 05:31:06;;;;;;;12.75;8.38;;;;;;;17.24;100.00;100199.22;5080904;28;20088;-65
2022/09/01 05:33:33;;;;;;;13.48;8.10;;;;;;;17.40;100.00;100205.44;5078731;28;20491;-66
2022/09/01 05:36:00;;;;;;;12.80;8.75;;;;;;;17.46;100.00;100206.00;5079343;28;20027;-66
2022/09/01 05:38:26;;;;;;;14.32;8.75;;;;;;;17.50;100.00;100207.56;5078994;28;20119;-65
2022/09/01 05:41:07;;;;;;;15.73;8.15;;;;;;;17.58;100.00;100194.53;5078877;28;20048;-66
2022/09/01 05:43:34;;;;;;;13.70;7.97;;;;;;;17.67;100.00;100195.81;5079204;28;20403;-66
2022/09/01 05:46:00;;;;;;;16.25;8.50;;;;;;;17.74;100.00;100206.13;5078895;28;20035;-66
2022/09/01 05:48:30;;;;;;;12.55;9.18;;;;;;;17.85;100.00;100209.06;5079071;28;20017;-66
2022/09/01 05:50:58;;;;;;;11.82;8.90;;;;;;;18.02;100.00;100203.53;5079580;28;20032;-66
2022/09/01 05:53:27;;;;;;;13.32;9.13;;;;;;;18.34;100.00;100202.47;5079259;28;20031;-66
2022/09/01 05:55:55;;;;;;;14.02;9.02;;;;;;;18.93;100.00;100206.84;5078159;28;20035;-66
2022/09/01 05:58:24;;;;;;;14.50;9.65;;;;;;;19.43;100.00;100204.47;5077480;28;20111;-65
2022/09/01 06:00:52;;;;;;;12.40;8.60;;;;;;;19.88;100.00;100196.97;5076431;28;20037;-65
2022/09/01 06:03:18;;;;;;;15.40;9.00;;;;;;;19.71;100.00;100203.50;5073506;28;20067;-66
2022/09/01 06:05:46;;;;;;;11.57;8.18;;;;;;;19.46;100.00;100195.31;5066478;28;20424;-66
2022/09/01 06:08:17;;;;;;;12.68;8.93;;;;;;;19.45;100.00;100198.97;5074046;28;20044;-66
2022/09/01 06:10:44;;;;;;;13.88;8.82;;;;;;;19.34;100.00;100206.91;5069175;28;20442;-65
2022/09/01 06:13:10;;;;;;;13.63;10.15;;;;;;;19.38;100.00;100203.91;5074744;28;20086;-66
2022/09/01 06:15:40;;;;;;;14.45;10.55;;;;;;;19.48;100.00;100204.16;5078662;28;20032;-67
2022/09/01 06:18:07;;;;;;;13.27;8.48;;;;;;;19.49;100.00;100205.88;5076162;28;20070;-66
2022/09/01 06:20:38;;;;;;;13.18;7.97;;;;;;;19.59;100.00;100201.63;5059019;28;20021;-67
2022/09/01 06:23:03;;;;;;;13.10;8.57;;;;;;;19.69;100.00;100208.13;5060427;28;20056;-64
2022/09/01 06:25:29;;;;;;;13.35;8.75;;;;;;;19.83;100.00;100220.72;5079789;28;20035;-64
2022/09/01 06:27:56;;;;;;;14.45;8.43;;;;;;;20.13;97.96;100224.03;5081073;28;20092;-67
2022/09/01 06:30:25;;;;;;;12.70;9.35;;;;;;;20.52;96.18;100227.59;5060265;28;20090;-65
2022/09/01 06:32:53;;;;;;;12.93;8.23;;;;;;;20.91;92.79;100226.59;5078254;28;20545;-65
2022/09/01 06:35:20;;;;;;;11.27;8.02;;;;;;;20.93;90.72;100227.38;5078960;28;20472;-67
2022/09/01 06:37:47;;;;;;;12.23;7.90;;;;;;;20.88;90.23;100229.53;5075854;28;20039;-66
2022/09/01 06:40:17;;;;;;;11.50;8.48;;;;;;;20.82;89.31;100224.56;5073219;28;20056;-66
2022/09/01 06:42:47;;;;;;;11.25;7.90;;;;;;;20.82;90.11;100230.81;5072971;28;20435;-66
2022/09/01 06:45:14;;;;;;;12.13;8.27;;;;;;;20.98;91.14;100229.75;5071758;28;20085;-66
2022/09/01 06:47:44;;;;;;;11.75;7.10;;;;;;;21.17;88.51;100219.38;5071866;28;20028;-66
2022/09/01 06:50:15;;;;;;;10.05;6.88;;;;;;;21.26;88.09;100224.09;5069795;28;20500;-65
2022/09/01 06:52:44;;;;;;;11.48;7.80;;;;;;;21.48;87.76;100226.97;5066819;28;20035;-66
2022/09/01 06:55:11;;;;;;;12.60;7.95;;;;;;;21.75;87.70;100223.06;5071092;28;20472;-66
2022/09/01 06:57:40;;;;;;;11.13;7.80;;;;;;;22.01;87.20;100218.38;5070704;28;20048;-64
2022/09/01 07:00:19;;;;;;;11.43;7.30;;;;;;;22.73;83.17;100234.44;5070658;28;20032;-64
2022/09/01 07:02:53;;;;;;;10.82;7.28;;;;;;;23.73;78.85;100237.97;5052311;28;20050;-66
2022/09/01 07:05:20;;;;;;;9.57;6.82;;;;;;;24.56;75.19;100244.44;5069614;28;20024;-66
2022/09/01 07:07:49;;;;;;;10.50;7.05;;;;;;;25.34;68.41;100242.88;5069953;28;20403;-66
2022/09/01 07:10:19;;;;;;;11.20;6.93;;;;;;;25.65;65.26;100239.13;5066923;28;20047;-65
2022/09/01 07:12:46;;;;;;;8.85;6.85;;;;;;;25.94;63.81;100241.94;5067950;28;20039;-65
2022/09/01 07:15:15;;;;;;;9.93;5.97;;;;;;;26.20;62.75;100250.44;5068968;28;20044;-65
2022/09/01 07:17:42;;;;;;;11.63;6.50;;;;;;;26.23;61.20;100242.84;5069163;28;20020;-64
2022/09/01 07:20:10;;;;;;;10.43;6.15;;;;;;;26.23;62.58;100248.28;5071271;28;20024;-65
2022/09/01 07:22:35;;;;;;;9.80;5.93;;;;;;;26.28;61.48;100264.22;5071054;28;20028;-65
2022/09/01 07:25:01;;;;;;;10.13;6.43;;;;;;;26.37;62.86;100252.47;5072062;28;20024;-65
2022/09/01 07:27:27;;;;;;;9.48;6.50;;;;;;;26.57;61.98;100265.09;5071530;28;20025;-67
2022/09/01 07:29:55;;;;;;;9.52;6.38;;;;;;;26.50;60.86;100266.66;5058540;28;20544;-67
2022/09/01 07:32:20;;;;;;;8.23;6.00;;;;;;;26.34;61.63;100267.25;5059579;28;20028;-67
2022/09/01 07:34:46;;;;;;;11.05;6.28;;;;;;;26.20;61.07;100269.53;5071687;28;20040;-67
2022/09/01 07:37:12;;;;;;;9.70;6.88;;;;;;;26.28;63.03;100261.47;5071338;28;20090;-65
2022/09/01 07:39:45;;;;;;;8.70;5.85;;;;;;;26.42;60.92;100269.25;5070022;28;20408;-65
2022/09/01 07:42:10;;;;;;;8.27;5.97;;;;;;;26.35;61.50;100259.91;5071283;28;20029;-62
2022/09/01 07:44:37;;;;;;;10.23;5.90;;;;;;;26.42;62.27;100270.13;5072160;28;20032;-64
2022/09/01 07:47:07;;;;;;;8.68;5.78;;;;;;;26.84;62.15;100265.19;5070901;28;20141;-65
2022/09/01 07:49:32;;;;;;;9.68;5.93;;;;;;;26.79;59.42;100262.06;5070722;28;20024;-64
2022/09/01 07:52:02;;;;;;;8.07;5.38;;;;;;;26.98;60.11;100265.63;5072573;28;20016;-64
2022/09/01 07:54:29;;;;;;;8.77;5.82;;;;;;;27.15;59.79;100274.88;5057211;28;20040;-65
2022/09/01 07:56:54;;;;;;;9.60;6.10;;;;;;;27.54;59.05;100271.03;5062721;28;20479;-64
2022/09/01 07:59:22;;;;;;;10.05;6.70;;;;;;;27.49;58.35;100265.16;5072767;28;20028;-65
2022/09/01 08:01:48;;;;;;;9.10;6.07;;;;;;;27.39;56.02;100261.63;5072186;28;20028;-65
2022/09/01 08:04:14;;;;;;;8.63;5.78;;;;;;;27.16;57.69;100262.97;5072800;28;20476;-65
2022/09/01 08:06:39;;;;;;;8.73;5.65;;;;;;;27.42;58.02;100269.50;5073008;28;20044;-65
2022/09/01 08:09:09;;;;;;;8.93;5.60;;;;;;;27.32;57.38;100259.63;5073244;28;20091;-65
2022/09/01 08:11:35;;;;;;;9.02;5.60;;;;;;;27.28;57.17;100270.00;5071548;28;20026;-67
2022/09/01 08:14:01;;;;;;;8.15;5.43;;;;;;;27.64;56.90;100260.94;5071435;28;20028;-67
2022/09/01 08:16:27;;;;;;;9.80;5.40;;;;;;;28.06;56.08;100270.31;5071624;28;20125;-67
2022/09/01 08:18:53;;;;;;;10.25;6.47;;;;;;;28.38;55.24;100272.53;5071290;28;20031;-67
2022/09/01 08:21:22;;;;;;;7.28;5.10;;;;;;;28.29;52.93;100273.44;5070161;28;20036;-67
2022/09/01 08:23:49;;;;;;;9.65;5.45;;;;;;;28.44;53.56;100275.50;5070657;28;20017;-67
2022/09/01 08:26:17;;;;;;;8.68;5.43;;;;;;;28.59;51.34;100272.22;5071392;28;20040;-67
2022/09/01 08:28:43;;;;;;;8.55;5.30;;;;;;;28.65;52.50;100266.13;5070529;28;20020;-67
2022/09/01 08:31:12;;;;;;;9.20;5.35;;;;;;;29.03;50.73;100276.66;5070366;28;20060;-67
2022/09/01 08:33:39;;;;;;;8.68;5.10;;;;;;;29.27;51.99;100277.75;5070538;28;20039;-67
2022/09/01 08:36:11;;;;;;;7.43;4.40;;;;;;;29.37;49.24;100267.50;5071337;28;20509;-67
2022/09/01 08:38:36;;;;;;;6.38;4.30;;;;;;;29.54;48.74;100271.16;5071290;28;20028;-67
2022/09/01 08:41:02;;;;;;;6.40;4.38;;;;;;;29.29;48.12;100280.31;5071975;28;20513;-66
2022/09/01 08:44:14;;;;;;;7.50;4.35;;;;;;;29.13;49.14;100285.66;5071839;28;20021;-67
2022/09/01 08:46:41;;;;;;;5.97;3.70;;;;;;;28.99;48.49;100278.91;5061832;28;20041;-68
2022/09/01 08:49:20;;;;;;;8.25;4.95;;;;;;;29.10;50.25;100275.03;5071512;28;20074;-67
2022/09/01 08:52:01;;;;;;;7.95;4.32;;;;;;;29.27;48.78;100282.34;5071097;28;20026;-67
2022/09/01 08:54:42;;;;;;;7.68;4.45;;;;;;;29.61;49.03;100269.50;5069353;28;20453;-67
2022/09/01 08:57:26;;;;;;;6.50;3.72;;;;;;;29.37;45.77;100275.72;5071077;28;20063;-67
2022/09/01 08:59:52;;;;;;;7.30;4.53;;;;;;;29.37;48.51;100277.63;5070857;28;20039;-67
2022/09/01 09:02:44;;;;;;;6.85;4.25;;;;;;;29.45;49.87;100275.78;5070908;28;20028;-67
2022/09/01 09:05:38;;;;;;;7.95;4.95;;;;;;;29.97;47.24;100271.03;5071433;28;20491;-68
2022/09/01 09:08:23;;;;;;;7.85;4.07;;;;;;;30.00;47.55;100278.91;5071445;28;20048;-68
2022/09/01 09:11:24;;;;;;;6.22;4.22;;;;;;;30.09;48.13;100260.59;5071721;28;20033;-68
2022/09/01 09:14:13;;;;;;;5.90;3.90;;;;;;;30.38;45.66;100275.59;5068494;28;20492;-68
2022/09/01 09:16:52;;;;;;;7.68;3.83;;;;;;;30.24;44.83;100261.69;5071583;28;20054;-68
2022/09/01 09:19:17;;;;;;;6.50;3.60;;;;;;;30.32;45.94;100261.69;5070720;28;20673;-68
2022/09/01 09:21:45;;;;;;;6.57;3.65;;;;;;;29.84;43.50;100245.09;5070554;28;20024;-68
2022/09/01 09:24:13;;;;;;;7.65;3.50;;;;;;;29.97;45.43;100254.56;5070193;28;20032;-68
2022/09/01 09:26:39;;;;;;;7.90;3.65;;;;;;;30.03;45.97;100256.66;5070602;28;20146;-68
2022/09/01 09:29:04;;;;;;;5.88;3.80;;;;;;;30.30;45.49;100261.88;5070528;28;20039;-68
2022/09/01 09:31:33;;;;;;;7.90;3.90;;;;;;;30.59;47.24;100259.47;5070627;28;20032;-68
2022/09/01 09:33:59;;;;;;;6.60;3.60;;;;;;;30.59;45.38;100254.00;5070935;28;20028;-67
2022/09/01 09:36:35;;;;;;;5.63;3.22;;;;;;;30.75;44.19;100240.28;5071180;28;20064;-69
2022/09/01 09:39:15;;;;;;;7.55;3.45;;;;;;;31.05;45.35;100246.09;5071068;28;20127;-68
2022/09/01 09:41:41;;;;;;;4.88;3.08;;;;;;;31.08;42.68;100245.72;5069945;28;20432;-67
2022/09/01 09:44:10;;;;;;;5.03;2.90;;;;;;;30.79;42.78;100238.06;5070788;28;20036;-68
2022/09/01 09:46:41;;;;;;;6.20;3.40;;;;;;;30.10;46.58;100237.63;5070690;28;20668;-68
2022/09/01 09:49:24;;;;;;;5.50;3.25;;;;;;;29.95;48.54;100234.66;5070334;28;20035;-68
2022/09/01 09:51:52;;;;;;;;;;;;;;;29.68;46.78;100237.69;5050231;28;20029;-68
2022/09/01 09:54:21;;;;;;;5.72;2.78;;;;;;;29.66;47.07;100231.50;5063596;28;20429;-64
2022/09/01 09:56:48;;;;;;;5.38;3.17;;;;;;;29.22;50.12;100222.56;5069883;28;20111;-65
2022/09/01 09:59:22;;;;;;;5.72;3.08;;;;;;;29.75;48.11;100225.03;5069764;28;20039;-65
2022/09/01 10:01:50;;;;;;;5.93;2.58;;;;;;;29.67;48.09;100219.50;5070123;28;20479;-65
2022/09/01 10:04:37;;;;;;;5.13;2.35;;;;;;;29.19;48.14;100213.81;5069991;28;20096;-66
2022/09/01 10:07:24;;;;;;;4.60;2.80;;;;;;;28.91;47.94;100223.19;5070369;28;20182;-66
2022/09/01 10:09:53;;;;;;;4.88;2.72;;;;;;;28.48;51.66;100224.88;5070910;28;20020;-66
2022/09/01 10:12:18;;;;;;;4.43;3.13;;;;;;;28.32;54.06;100221.13;5050769;28;20507;-67
2022/09/01 10:14:50;;;;;;;4.35;2.80;;;;;;;27.93;49.28;100222.47;5050760;28;20029;-68
2022/09/01 10:17:40;;;;;;;4.53;2.95;;;;;;;28.16;51.95;100221.88;5050774;28;20463;-68
2022/09/01 10:20:16;;;;;;;4.68;2.22;;;;;;;27.80;49.79;100211.03;5050615;28;20032;-67
2022/09/01 10:22:42;;;;;;;4.45;2.60;;;;;;;27.34;50.93;100201.09;5052544;28;20033;-67
2022/09/01 10:25:18;;;;;;;3.60;2.13;;;;;;;27.60;52.00;100214.91;5070597;28;20032;-66
2022/09/01 10:27:48;;;;;;;3.13;2.25;;;;;;;27.94;47.70;100210.53;5070627;28;20024;-66
2022/09/01 10:30:20;;;;;;;7.75;3.50;;;;;;;29.04;48.48;100205.31;5070364;28;20056;-65
2022/09/01 10:32:49;;;;;;;7.38;3.97;;;;;;;29.99;45.69;100197.66;5070051;28;20107;-65
2022/09/01 10:35:30;;;;;;;6.65;3.15;;;;;;;30.76;43.43;100200.75;5070518;28;20028;-65
2022/09/01 10:38:05;;;;;;;11.25;5.38;;;;;;;31.17;41.86;100189.72;5069893;28;20103;-65
2022/09/01 10:40:46;;;;;;;7.65;2.72;;;;;;;30.57;42.36;100192.91;5069417;28;20024;-67
2022/09/01 10:43:24;;;;;;;8.00;2.67;;;;;;;31.02;43.72;100196.97;5069725;28;20102;-67
2022/09/01 10:45:50;;;;;;;5.45;2.17;;;;;;;30.08;43.07;100199.38;5070287;28;20017;-66
2022/09/01 10:48:33;;;;;;;4.55;2.30;;;;;;;29.52;44.15;100202.78;5070057;28;20028;-68
2022/09/01 10:51:14;;;;;;;7.55;4.57;;;;;;;29.20;47.19;100204.53;5070321;28;20020;-66
2022/09/01 10:53:44;;;;;;;21.88;11.27;;;;;;;28.48;49.19;100185.72;5072599;28;20024;-66
2022/09/01 10:56:18;;;;;;;18.65;10.57;;;;;;;28.33;51.04;100195.50;5074261;28;20024;-66
2022/09/01 10:59:02;;;;;;;5.68;3.40;;;;;;;28.88;49.86;100193.38;5074089;28;20170;-67
2022/09/01 11:01:48;;;;;;;5.72;3.60;;;;;;;29.12;46.91;100194.41;5074017;28;20107;-66
2022/09/01 11:04:18;;;;;;;4.05;2.55;;;;;;;28.69;45.62;100193.59;5072458;28;20067;-67
2022/09/01 11:06:49;;;;;;;4.38;2.25;;;;;;;28.75;48.65;100192.97;5073950;28;20507;-66
2022/09/01 11:09:35;;;;;;;5.10;2.17;;;;;;;28.30;47.41;100193.09;5073832;28;20032;-67
2022/09/01 11:12:32;;;;;;;4.47;2.35;;;;;;;28.33;47.35;100192.78;5073677;28;20111;-69
2022/09/01 11:15:03;;;;;;;3.70;2.00;;;;;;;28.36;45.85;100187.84;5073877;28;20035;-67
2022/09/01 11:17:36;;;;;;;5.00;2.38;;;;;;;28.28;48.55;100187.78;5073851;28;20380;-67
2022/09/01 11:20:21;;;;;;;3.90;2.47;;;;;;;27.97;47.15;100175.50;5073560;28;20103;-67
2022/09/01 11:22:55;;;;;;;3.78;1.98;;;;;;;27.75;46.54;100186.88;5073536;28;20490;-68
2022/09/01 11:25:39;;;;;;;3.17;1.67;;;;;;;27.59;46.25;100181.25;5073750;28;20055;-67
2022/09/01 11:28:08;;;;;;;3.33;2.03;;;;;;;27.15;48.40;100187.47;5073596;28;20698;-64
2022/09/01 11:30:53;;;;;;;5.30;2.25;;;;;;;27.28;48.37;100188.06;5073313;28;20029;-67
2022/09/01 11:33:32;;;;;;;3.83;2.55;;;;;;;27.91;49.50;100187.09;5072827;28;20128;-66
2022/09/01 11:36:05;;;;;;;3.97;1.98;;;;;;;28.70;43.23;100184.38;5073215;28;20047;-66